Hovedside
METAR-TAF:

METAR-TAF

Lufthavner :

Gran Canaria, Spania

Gran Canaria internasjonale lufthavn

breddegrad: 27-56N, lengdegrad: 015-23W, høyde over havet: 23 m

Gjeldene værobservasjon

Denne rapporten ble laget for 19 minutter siden, klokken 19:00 UTC
Vind 15 kt fra Nord
Temperatur 18°C
Luftfuktighet 64%
Trykk 1022 hPa
Sikt 10 km eller mer
Få skyer i en høyde av 3000 ft
Brutte skyer i en høyde av 4500 ft

METAR: GCLP 181900Z 36015KT 9999 FEW030 BKN045 18/11 Q1022 NOSIG

Tid: 19:19 (19:19 UTC)

Varsel

Denne rapporten ble laget for 5 timer og 19 minutter siden, klokken 14:00 UTC
Varsel gyldig fra 18. klokken 15 UTC til 19. klokken 15 UTC
Vind 20 kt fra Nord
Sikt 10 km eller mer
Spredte skyer i en høyde av 3000 ft
Midlertidig
fra 18. klokken 15 UTC til 19. klokken 15 UTC
Vind 20 kt fra Nord med vindkast opp mot 30 kt

TAF: GCLP 181400Z 1815/1915 35020KT 9999 SCT030 TX21/1914Z TN16/1906Z TEMPO 1815/1915 35020G30KT

Værobservasjoner og værvarsel for over 4000 flyplasser (METAR- og TAF-rapporter).

Tilgjengelige stasjoner er representert av de røde og gule prikkene på kartet.

Hold musepekeren over prikken for å se navnet på stasjonen.

Klikk så for å se værobservasjoner og -varsler.

For å forandre kartet kan du klikke på den grønne knappen med svart kryss for å zoome inn, på den grønne knappen med strek for å zoome ut, eller på de grønne pilene for å se tilstøtende kart.


METAR-TAF: